CYAW/YAW METAR and TAF weather

Enter ICAO airport designator
Station Type Date Time Source
CYAW METAR 2019/02/22 20:00 UTC NOAA

CYAW 222000Z 32010G17KT 15SM FEW032 M03/M11 A3014 RMK SC1 DA-2323FT LAST OBS/NEXT 251200 UTC SLP209


Station Type Date Time Source
CYAW Decoded METAR 2019/02/22 20:00 UTC NOAA

Shearwater, N. S., Canada (CYAW) 44-38N 063-30W 51M
Feb 22, 2019 - 03:00 PM EST / 2019.02.22 2000 UTC
Wind: from the NW (320 degrees) at 12 MPH (10 KT) gusting to 20 MPH (17 KT):0
Visibility: 15 mile(s):0
Sky conditions: mostly clear
Temperature: 26 F (-3 C)
Windchill: 15 F (-9 C):1
Dew Point: 12 F (-11 C)
Relative Humidity: 53%
Pressure (altimeter): 30.14 in. Hg (1020 hPa)
ob: CYAW 222000Z 32010G17KT 15SM FEW032 M03/M11 A3014 RMK SC1 DA-2323FT LAST OBS/NEXT 251200 UTC SLP209
cycle: 20

Station Type Date Time Source
CYAW TAF 2019/02/22 18:35 UTC NOAA

TAF CYAW 221730Z 2218/2306 32010G20KT P6SM FEW030
FM222300 31012KT P6SM BKN030
FM230300 31008KT P6SM FEW030
RMK NXT FCST BY 230000Z


Example: see airport list